createdAt,value
2023-03-15T00:01:58.789Z,4.60
2023-03-15T00:04:32.468Z,6.43
2023-03-15T00:07:04.296Z,4.27
2023-03-15T00:09:36.054Z,5.90
2023-03-15T00:12:08.063Z,4.57
2023-03-15T00:14:39.741Z,5.50
2023-03-15T00:17:11.840Z,5.70
2023-03-15T00:19:43.676Z,6.10
2023-03-15T00:22:15.493Z,25.13
2023-03-15T00:24:47.247Z,7.80
2023-03-15T00:27:18.972Z,10.43
2023-03-15T00:29:50.737Z,12.93
2023-03-15T00:32:22.568Z,10.93
2023-03-15T00:34:54.703Z,5.97
2023-03-15T00:37:26.510Z,7.27
2023-03-15T00:39:58.398Z,6.80
2023-03-15T00:42:30.236Z,11.50
2023-03-15T00:45:01.934Z,11.73
2023-03-15T00:47:34.037Z,10.63
2023-03-15T00:50:05.988Z,6.10
2023-03-15T00:52:38.733Z,8.10
2023-03-15T00:55:15.553Z,7.37
2023-03-15T00:57:47.713Z,5.37
2023-03-15T01:00:24.843Z,6.07
2023-03-15T01:02:56.849Z,5.17
2023-03-15T01:05:28.550Z,8.33
2023-03-15T01:08:03.124Z,11.07
2023-03-15T01:10:35.812Z,6.43
2023-03-15T01:13:07.760Z,5.67
2023-03-15T01:15:39.519Z,7.10
2023-03-15T01:18:11.324Z,5.80
2023-03-15T01:20:44.994Z,6.37
2023-03-15T01:23:17.148Z,7.33
2023-03-15T01:25:49.185Z,6.47
2023-03-15T01:28:20.885Z,8.10
2023-03-15T01:30:53.239Z,4.73
2023-03-15T01:33:25.308Z,10.13
2023-03-15T01:36:15.234Z,9.37
2023-03-15T01:38:46.969Z,4.93
2023-03-15T01:41:19.876Z,6.23
2023-03-15T01:43:51.978Z,5.22
2023-03-15T01:46:34.691Z,3.00
2023-03-15T01:49:32.356Z,6.50
2023-03-15T01:52:13.560Z,3.07
2023-03-15T01:55:00.023Z,9.87
2023-03-15T01:57:40.217Z,10.83
2023-03-15T02:00:15.483Z,5.60
2023-03-15T02:03:01.152Z,3.83
2023-03-15T02:05:38.689Z,6.23
2023-03-15T02:08:11.673Z,11.97
2023-03-15T02:10:49.534Z,3.73
2023-03-15T02:13:23.440Z,9.13
2023-03-15T02:15:55.712Z,3.00
2023-03-15T02:18:27.413Z,5.77
2023-03-15T02:21:10.945Z,6.50
2023-03-15T02:23:47.478Z,3.00
2023-03-15T02:26:25.817Z,9.70
2023-03-15T02:28:57.615Z,3.13
2023-03-15T02:31:37.787Z,5.10
2023-03-15T02:34:09.642Z,2.53
2023-03-15T02:36:41.418Z,3.40
2023-03-15T02:39:22.308Z,3.95
2023-03-15T02:41:57.271Z,3.20
2023-03-15T02:44:41.410Z,4.00
2023-03-15T02:47:30.396Z,7.23
2023-03-15T02:50:02.196Z,2.43
2023-03-15T02:52:34.254Z,3.90
2023-03-15T02:55:06.630Z,3.10
2023-03-15T02:57:38.683Z,2.73
2023-03-15T03:00:14.486Z,3.17
2023-03-15T03:02:48.500Z,2.60
2023-03-15T03:05:20.298Z,4.63
2023-03-15T03:07:52.177Z,6.57
2023-03-15T03:10:24.021Z,3.07
2023-03-15T03:12:55.934Z,6.07
2023-03-15T03:15:27.633Z,5.97
2023-03-15T03:17:59.469Z,2.87
2023-03-15T03:20:31.288Z,4.80
2023-03-15T03:23:06.162Z,8.03
2023-03-15T03:25:37.996Z,5.20
2023-03-15T03:28:09.774Z,5.87
2023-03-15T03:30:41.466Z,3.90
2023-03-15T03:33:13.168Z,4.15
2023-03-15T03:35:44.984Z,6.53
2023-03-15T03:38:17.029Z,4.03
2023-03-15T03:40:48.801Z,5.10
2023-03-15T03:43:20.497Z,3.77
2023-03-15T03:45:52.320Z,8.93
2023-03-15T03:48:24.127Z,8.13
2023-03-15T03:50:55.875Z,4.50
2023-03-15T03:53:27.604Z,3.63
2023-03-15T03:55:59.371Z,5.33
2023-03-15T03:58:31.244Z,3.40
2023-03-15T04:01:04.054Z,19.27
2023-03-15T04:03:35.826Z,4.20
2023-03-15T04:06:07.611Z,4.23
2023-03-15T04:08:40.962Z,4.67
2023-03-15T04:11:17.406Z,3.77
2023-03-15T04:13:49.398Z,3.53
2023-03-15T04:16:21.226Z,5.47
2023-03-15T04:18:56.617Z,7.07
2023-03-15T04:21:31.817Z,5.00
2023-03-15T04:24:03.757Z,6.73
2023-03-15T04:26:35.570Z,7.97
2023-03-15T04:29:07.543Z,4.40
2023-03-15T04:31:39.320Z,4.00
2023-03-15T04:34:11.104Z,9.03
2023-03-15T04:36:43.127Z,3.93
2023-03-15T04:39:14.831Z,4.27
2023-03-15T04:41:46.756Z,4.47
2023-03-15T04:44:18.510Z,4.80
2023-03-15T04:46:52.153Z,5.77
2023-03-15T04:49:23.993Z,3.83
2023-03-15T04:51:55.804Z,4.83
2023-03-15T04:54:27.844Z,4.37
2023-03-15T04:56:59.684Z,9.47
2023-03-15T04:59:31.505Z,4.63
2023-03-15T05:02:04.020Z,7.78
2023-03-15T05:04:35.910Z,5.00
2023-03-15T05:07:08.726Z,13.33
2023-03-15T05:09:40.480Z,7.00
2023-03-15T05:12:13.415Z,5.00
2023-03-15T05:14:45.173Z,7.90
2023-03-15T05:17:16.931Z,6.73
2023-03-15T05:19:51.868Z,7.10
2023-03-15T05:22:25.621Z,11.97
2023-03-15T05:24:57.424Z,11.75
2023-03-15T05:27:29.328Z,13.57
2023-03-15T05:30:04.543Z,10.43
2023-03-15T05:32:39.457Z,6.93
2023-03-15T05:35:11.896Z,11.87
2023-03-15T05:37:43.613Z,13.90
2023-03-15T05:40:15.472Z,8.47
2023-03-15T05:42:47.173Z,7.53
2023-03-15T05:45:18.959Z,7.93
2023-03-15T05:47:50.735Z,6.33
2023-03-15T05:50:23.224Z,9.60
2023-03-15T05:52:56.002Z,11.50
2023-03-15T05:55:27.988Z,6.40
2023-03-15T05:57:59.771Z,9.50
2023-03-15T06:00:32.082Z,7.13
2023-03-15T06:03:03.946Z,7.37
2023-03-15T06:05:35.751Z,9.47
2023-03-15T06:08:07.587Z,9.80
2023-03-15T06:10:39.401Z,10.50
2023-03-15T06:13:11.325Z,10.30
2023-03-15T06:15:43.236Z,12.40
2023-03-15T06:18:17.374Z,12.30
2023-03-15T06:20:49.152Z,9.03
2023-03-15T06:23:20.962Z,12.63
2023-03-15T06:25:52.738Z,13.40
2023-03-15T06:28:24.446Z,11.17
2023-03-15T06:30:56.423Z,10.90
2023-03-15T06:33:28.184Z,7.10
2023-03-15T06:36:00.054Z,9.17
2023-03-15T06:38:32.137Z,26.83
2023-03-15T06:41:05.184Z,7.60
2023-03-15T06:43:36.977Z,12.37
2023-03-15T06:46:08.780Z,12.97
2023-03-15T06:48:40.768Z,11.80
2023-03-15T06:51:12.527Z,13.50
2023-03-15T06:53:44.308Z,16.13
2023-03-15T06:56:16.125Z,10.00
2023-03-15T06:58:47.839Z,10.83
2023-03-15T07:01:19.624Z,11.03
2023-03-15T07:03:51.388Z,8.10
2023-03-15T07:06:23.080Z,13.37
2023-03-15T07:08:55.006Z,8.00
2023-03-15T07:11:26.700Z,11.83
2023-03-15T07:13:58.696Z,11.07
2023-03-15T07:16:30.742Z,7.40
2023-03-15T07:19:02.667Z,8.10
2023-03-15T07:21:34.463Z,11.27
2023-03-15T07:24:06.445Z,8.90
2023-03-15T07:26:38.146Z,9.80
2023-03-15T07:29:09.811Z,7.70
2023-03-15T07:31:41.482Z,6.20
2023-03-15T07:34:13.259Z,14.00
2023-03-15T07:36:45.060Z,5.57
2023-03-15T07:39:16.754Z,10.90
2023-03-15T07:41:48.433Z,5.47
2023-03-15T07:44:20.240Z,5.67
2023-03-15T07:46:52.119Z,7.30
2023-03-15T07:49:23.831Z,7.77
2023-03-15T07:51:55.787Z,3.70
2023-03-15T07:54:29.486Z,5.40
2023-03-15T07:57:01.377Z,7.40
2023-03-15T07:59:33.630Z,9.17
2023-03-15T08:02:05.510Z,10.80
2023-03-15T08:04:37.213Z,6.33
2023-03-15T08:07:08.998Z,5.73
2023-03-15T08:09:40.796Z,5.33
2023-03-15T08:12:12.720Z,5.50
2023-03-15T08:14:44.478Z,4.53
2023-03-15T08:17:16.275Z,4.30
2023-03-15T08:19:48.038Z,4.63
2023-03-15T08:22:19.819Z,6.57
2023-03-15T08:24:53.288Z,3.47
2023-03-15T08:27:25.533Z,7.40
2023-03-15T08:29:57.258Z,4.47
2023-03-15T08:32:28.977Z,7.63
2023-03-15T08:35:00.906Z,4.87
2023-03-15T08:37:32.856Z,6.57
2023-03-15T08:40:11.274Z,4.80
2023-03-15T08:42:43.028Z,5.40
2023-03-15T08:45:16.081Z,10.10
2023-03-15T08:47:47.847Z,4.00
2023-03-15T08:50:19.649Z,3.90
2023-03-15T08:52:51.412Z,3.40
2023-03-15T08:55:23.530Z,4.80
2023-03-15T08:57:55.276Z,4.87
2023-03-15T09:00:28.446Z,3.30
2023-03-15T09:03:00.256Z,3.60
2023-03-15T09:05:31.993Z,3.20
2023-03-15T09:08:04.404Z,3.87
2023-03-15T09:10:36.224Z,3.57
2023-03-15T09:13:07.943Z,4.07
2023-03-15T09:15:39.609Z,4.13
2023-03-15T09:18:12.459Z,7.70
2023-03-15T09:20:44.380Z,6.03
2023-03-15T09:23:16.186Z,4.67
2023-03-15T09:25:48.759Z,8.83
2023-03-15T09:28:20.650Z,16.67
2023-03-15T09:30:52.789Z,4.27
2023-03-15T09:33:24.606Z,4.33
2023-03-15T09:35:56.582Z,8.50
2023-03-15T09:38:28.538Z,10.73
2023-03-15T09:41:01.663Z,3.60
2023-03-15T09:43:44.614Z,3.60
2023-03-15T09:46:38.715Z,3.07
2023-03-15T09:49:53.353Z,2.60
2023-03-15T09:52:45.887Z,2.70
2023-03-15T09:55:25.642Z,3.43
2023-03-15T09:58:09.639Z,5.38
2023-03-15T10:01:06.475Z,3.27
2023-03-15T10:03:52.655Z,4.60
2023-03-15T10:06:29.202Z,6.93
2023-03-15T10:09:06.746Z,2.87
2023-03-15T10:12:09.075Z,4.87
2023-03-15T10:15:10.808Z,6.43
2023-03-15T10:18:03.762Z,3.33
2023-03-15T10:20:47.079Z,3.00
2023-03-15T10:23:28.740Z,5.37
2023-03-15T10:26:01.109Z,2.30
2023-03-15T10:28:34.914Z,2.30
2023-03-15T10:31:25.575Z,10.93
2023-03-15T10:34:04.376Z,2.00
2023-03-15T10:36:36.118Z,2.93
2023-03-15T10:39:11.197Z,2.60
2023-03-15T10:41:45.754Z,4.20
2023-03-15T10:44:26.059Z,9.57
2023-03-15T10:47:21.425Z,2.00
2023-03-15T10:49:59.225Z,3.57
2023-03-15T10:52:40.147Z,2.40
2023-03-15T10:55:16.465Z,1.63
2023-03-15T10:57:57.657Z,3.60
2023-03-15T11:00:36.412Z,2.50
2023-03-15T11:03:20.792Z,3.57
2023-03-15T11:05:55.591Z,2.23
2023-03-15T11:08:47.584Z,1.80
2023-03-15T11:11:23.352Z,3.97
2023-03-15T11:14:00.668Z,8.87
2023-03-15T11:16:37.417Z,3.73
2023-03-15T11:19:26.190Z,3.20
2023-03-15T11:21:59.743Z,1.87
2023-03-15T11:24:33.799Z,2.10
2023-03-15T11:27:15.949Z,4.10
2023-03-15T11:29:55.836Z,3.50
2023-03-15T11:32:31.477Z,2.60
2023-03-15T11:35:24.300Z,3.40
2023-03-15T11:38:13.071Z,4.43
2023-03-15T11:40:53.670Z,1.73
2023-03-15T11:43:38.005Z,2.90
2023-03-15T11:46:26.879Z,1.58
2023-03-15T11:49:15.813Z,3.17
2023-03-15T11:51:47.605Z,1.37
2023-03-15T11:54:20.963Z,1.87
2023-03-15T11:56:55.936Z,2.03
2023-03-15T11:59:33.429Z,2.00
2023-03-15T12:02:13.349Z,2.50
2023-03-15T12:04:52.973Z,1.57
2023-03-15T12:07:31.354Z,2.20
2023-03-15T12:10:03.099Z,4.17
2023-03-15T12:12:36.606Z,1.87
2023-03-15T12:15:14.694Z,5.33
2023-03-15T12:17:51.112Z,2.80
2023-03-15T12:20:39.170Z,1.60
2023-03-15T12:23:20.043Z,1.20
2023-03-15T12:26:03.685Z,1.50
2023-03-15T12:28:36.985Z,3.63
2023-03-15T12:31:14.572Z,2.30
2023-03-15T12:33:50.973Z,1.40
2023-03-15T12:36:41.800Z,2.57
2023-03-15T12:39:16.852Z,1.87
2023-03-15T12:41:51.525Z,2.65
2023-03-15T12:44:32.510Z,2.10
2023-03-15T12:47:06.328Z,3.83
2023-03-15T12:49:45.897Z,1.70
2023-03-15T12:52:38.708Z,2.77
2023-03-15T12:55:10.356Z,3.87
2023-03-15T12:57:54.163Z,2.10
2023-03-15T13:00:29.072Z,1.40
2023-03-15T13:03:16.840Z,6.33
2023-03-15T13:06:04.386Z,1.50
2023-03-15T13:09:14.798Z,2.70
2023-03-15T13:12:08.651Z,3.37
2023-03-15T13:14:51.188Z,2.10
2023-03-15T13:17:40.019Z,2.70
2023-03-15T13:20:17.827Z,1.60
2023-03-15T13:23:15.042Z,1.50
2023-03-15T13:26:12.309Z,1.87
2023-03-15T13:28:58.913Z,2.90
2023-03-15T13:31:31.860Z,2.50
2023-03-15T13:34:16.399Z,2.67
2023-03-15T13:36:56.606Z,2.00
2023-03-15T13:39:31.348Z,2.10
2023-03-15T13:42:04.710Z,2.00
2023-03-15T13:44:36.656Z,2.73
2023-03-15T13:47:08.446Z,2.23
2023-03-15T13:49:40.126Z,5.87
2023-03-15T13:52:14.815Z,3.93
2023-03-15T13:54:46.877Z,2.60
2023-03-15T13:57:20.184Z,2.80
2023-03-15T14:00:00.782Z,2.70
2023-03-15T14:02:47.376Z,2.47
2023-03-15T14:05:27.608Z,2.70
2023-03-15T14:08:15.165Z,3.10
2023-03-15T14:11:01.957Z,3.10
2023-03-15T14:13:35.804Z,3.30
2023-03-15T14:16:14.221Z,2.77
2023-03-15T14:18:47.946Z,5.07
2023-03-15T14:21:29.262Z,2.80
2023-03-15T14:24:06.613Z,3.10
2023-03-15T14:26:38.708Z,2.80
2023-03-15T14:29:22.175Z,3.83
2023-03-15T14:31:53.993Z,3.30
2023-03-15T14:34:36.599Z,5.23
2023-03-15T14:37:28.088Z,6.80
2023-03-15T14:40:17.803Z,7.33
2023-03-15T14:42:50.712Z,2.73
2023-03-15T14:45:23.092Z,3.10
2023-03-15T14:47:59.709Z,5.50
2023-03-15T14:50:36.918Z,3.27
2023-03-15T14:53:14.208Z,3.40
2023-03-15T14:55:45.904Z,4.50
2023-03-15T14:58:20.675Z,3.70
2023-03-15T15:00:57.921Z,3.13
2023-03-15T15:03:39.515Z,4.07
2023-03-15T15:06:14.071Z,7.80
2023-03-15T15:08:48.445Z,2.90
2023-03-15T15:11:20.306Z,3.33
2023-03-15T15:13:52.611Z,3.20
2023-03-15T15:16:24.702Z,3.43
2023-03-15T15:18:56.464Z,4.13
2023-03-15T15:21:33.909Z,6.07
2023-03-15T15:24:13.540Z,3.93
2023-03-15T15:26:46.887Z,4.07
2023-03-15T15:29:18.717Z,4.67
2023-03-15T15:31:50.729Z,8.53
2023-03-15T15:34:22.488Z,5.50
2023-03-15T15:36:54.280Z,5.70
2023-03-15T15:39:29.480Z,4.73
2023-03-15T15:42:01.303Z,3.80
2023-03-15T15:44:32.965Z,6.83
2023-03-15T15:47:04.939Z,3.97
2023-03-15T15:49:36.629Z,3.60
2023-03-15T15:52:14.342Z,3.80
2023-03-15T15:54:46.794Z,5.60
2023-03-15T15:57:22.157Z,4.23
2023-03-15T15:59:53.874Z,3.40
2023-03-15T16:02:25.701Z,4.67
2023-03-15T16:04:57.479Z,3.90
2023-03-15T16:07:29.586Z,4.13
2023-03-15T16:10:01.672Z,4.33
2023-03-15T16:12:34.633Z,3.90
2023-03-15T16:15:06.787Z,4.10
2023-03-15T16:17:39.083Z,5.77
2023-03-15T16:20:12.328Z,5.60
2023-03-15T16:22:56.202Z,12.93
2023-03-15T16:25:33.737Z,6.33
2023-03-15T16:28:07.799Z,4.83
2023-03-15T16:30:40.859Z,8.87
2023-03-15T16:33:18.732Z,4.70
2023-03-15T16:35:53.395Z,3.73
2023-03-15T16:38:32.234Z,4.53
2023-03-15T16:41:04.047Z,5.20
2023-03-15T16:43:35.710Z,4.30
2023-03-15T16:46:17.367Z,3.50
2023-03-15T16:48:49.171Z,3.33
2023-03-15T16:51:20.979Z,3.90
2023-03-15T16:53:57.555Z,3.50
2023-03-15T16:56:37.426Z,4.80
2023-03-15T16:59:13.981Z,3.53
2023-03-15T17:01:47.259Z,2.50
2023-03-15T17:04:19.112Z,3.20
2023-03-15T17:09:28.752Z,2.63
2023-03-15T17:12:00.508Z,3.20
2023-03-15T17:14:35.682Z,4.70
2023-03-15T17:17:08.798Z,3.73
2023-03-15T17:19:40.764Z,3.97
2023-03-15T17:22:12.770Z,3.63
2023-03-15T17:24:45.084Z,4.13
2023-03-15T17:27:31.617Z,5.13
2023-03-15T17:30:20.608Z,6.40
2023-03-15T17:32:53.862Z,4.40
2023-03-15T17:35:30.842Z,4.80
2023-03-15T17:38:04.034Z,5.63
2023-03-15T17:40:36.592Z,5.60
2023-03-15T17:43:12.978Z,5.97
2023-03-15T17:45:44.819Z,4.80
2023-03-15T17:48:16.537Z,7.70
2023-03-15T17:50:48.204Z,4.57
2023-03-15T17:53:21.199Z,5.27
2023-03-15T17:55:53.490Z,5.40
2023-03-15T17:58:26.986Z,5.80
2023-03-15T18:00:58.850Z,6.43
2023-03-15T18:03:31.433Z,9.90
2023-03-15T18:06:05.238Z,12.13
2023-03-15T18:08:37.009Z,10.00
2023-03-15T18:11:16.680Z,9.13
2023-03-15T18:13:48.718Z,9.60
2023-03-15T18:16:21.186Z,6.73
2023-03-15T18:18:52.982Z,7.63
2023-03-15T18:21:27.341Z,13.17
2023-03-15T18:23:59.053Z,8.33
2023-03-15T18:26:30.760Z,8.57
2023-03-15T18:29:02.516Z,7.63
2023-03-15T18:31:35.413Z,8.47
2023-03-15T18:34:07.324Z,7.80
2023-03-15T18:36:39.080Z,9.90
2023-03-15T18:39:11.123Z,11.00
2023-03-15T18:41:42.820Z,7.27
2023-03-15T18:44:14.497Z,7.70
2023-03-15T18:46:46.217Z,10.37
2023-03-15T18:49:17.904Z,11.17
2023-03-15T18:51:49.583Z,9.57
2023-03-15T18:54:23.948Z,11.70
2023-03-15T18:56:55.628Z,12.73
2023-03-15T18:59:27.375Z,10.83
2023-03-15T19:01:59.631Z,21.77
2023-03-15T19:04:31.372Z,32.13
2023-03-15T19:07:03.043Z,11.70
2023-03-15T19:09:34.713Z,17.00
2023-03-15T19:12:06.679Z,14.27
2023-03-15T19:14:38.859Z,8.80
2023-03-15T19:17:10.709Z,8.30
2023-03-15T19:19:42.445Z,7.73
2023-03-15T19:22:14.124Z,14.50
2023-03-15T19:24:45.813Z,6.87
2023-03-15T19:27:17.896Z,7.03
2023-03-15T19:29:49.620Z,6.40
2023-03-15T19:32:21.592Z,6.60
2023-03-15T19:34:53.356Z,7.67
2023-03-15T19:37:25.033Z,8.53
2023-03-15T19:39:56.744Z,9.85
2023-03-15T19:42:28.422Z,8.47
2023-03-15T19:45:00.160Z,8.07
2023-03-15T19:47:32.115Z,7.43
2023-03-15T19:50:04.553Z,8.80
2023-03-15T19:52:38.739Z,9.00
2023-03-15T19:55:10.652Z,11.73
2023-03-15T19:57:42.520Z,6.33
2023-03-15T20:00:16.327Z,7.20
2023-03-15T20:02:48.132Z,6.90
2023-03-15T20:05:21.326Z,7.17
2023-03-15T20:07:54.235Z,9.67
2023-03-15T20:10:26.104Z,8.17
2023-03-15T20:12:59.099Z,8.80
2023-03-15T20:15:32.105Z,9.70
2023-03-15T20:18:07.998Z,10.13
2023-03-15T20:20:39.688Z,8.67
2023-03-15T20:23:11.364Z,9.50
2023-03-15T20:25:43.313Z,13.23
2023-03-15T20:28:15.102Z,9.97
2023-03-15T20:30:46.787Z,8.00
2023-03-15T20:33:18.481Z,10.30
2023-03-15T20:35:52.029Z,9.27
2023-03-15T20:38:23.824Z,11.37
2023-03-15T20:40:56.795Z,9.20
2023-03-15T20:43:28.543Z,14.13
2023-03-15T20:46:01.832Z,9.50
2023-03-15T20:48:35.646Z,10.33
2023-03-15T20:51:07.311Z,10.43
2023-03-15T20:53:39.287Z,13.00
2023-03-15T20:56:11.059Z,12.82
2023-03-15T20:58:42.879Z,13.20
2023-03-15T21:01:16.643Z,13.40
2023-03-15T21:03:48.560Z,11.87
2023-03-15T21:06:20.680Z,13.23
2023-03-15T21:08:52.389Z,11.80
2023-03-15T21:11:24.061Z,11.60
2023-03-15T21:13:55.761Z,13.73
2023-03-15T21:16:27.496Z,12.37
2023-03-15T21:19:00.111Z,10.87
2023-03-15T21:21:31.814Z,16.17
2023-03-15T21:24:06.260Z,15.20
2023-03-15T21:26:38.956Z,13.77
2023-03-15T21:29:12.291Z,14.88
2023-03-15T21:31:44.073Z,14.40
2023-03-15T21:34:16.082Z,13.23
2023-03-15T21:36:47.800Z,14.53
2023-03-15T21:39:19.538Z,12.63
2023-03-15T21:41:51.290Z,15.10
2023-03-15T21:44:22.997Z,9.07
2023-03-15T21:46:55.197Z,9.90
2023-03-15T21:49:26.984Z,9.80
2023-03-15T21:52:02.394Z,16.67
2023-03-15T21:54:34.052Z,10.40
2023-03-15T21:57:05.831Z,11.10
2023-03-15T21:59:37.481Z,8.53
2023-03-15T22:02:10.951Z,9.70
2023-03-15T22:04:43.765Z,10.10
2023-03-15T22:07:15.475Z,10.20
2023-03-15T22:09:47.241Z,12.13
2023-03-15T22:12:19.009Z,9.47
2023-03-15T22:15:00.117Z,9.83
2023-03-15T22:17:36.658Z,13.70
2023-03-15T22:20:13.756Z,13.50
2023-03-15T22:22:51.331Z,12.73
2023-03-15T22:25:23.432Z,13.93
2023-03-15T22:27:55.108Z,11.40
2023-03-15T22:30:27.308Z,11.13
2023-03-15T22:32:59.726Z,12.60
2023-03-15T22:35:31.613Z,10.63
2023-03-15T22:38:09.857Z,17.77
2023-03-15T22:40:43.014Z,11.07
2023-03-15T22:43:14.987Z,16.07
2023-03-15T22:45:46.733Z,11.30
2023-03-15T22:48:19.550Z,14.17
2023-03-15T22:51:02.189Z,17.63
2023-03-15T22:53:34.186Z,11.83
2023-03-15T22:56:06.449Z,13.63
2023-03-15T22:58:38.223Z,12.97
2023-03-15T23:01:10.983Z,15.73
2023-03-15T23:03:42.716Z,12.30
2023-03-15T23:06:14.405Z,13.57
2023-03-15T23:08:46.324Z,13.80
2023-03-15T23:11:18.095Z,11.47
2023-03-15T23:13:49.772Z,15.70
2023-03-15T23:16:23.348Z,13.40
2023-03-15T23:18:55.099Z,11.73
2023-03-15T23:21:26.838Z,13.33
2023-03-15T23:23:59.186Z,13.77
2023-03-15T23:26:37.159Z,11.93
2023-03-15T23:29:10.903Z,18.50
2023-03-15T23:31:42.978Z,13.90
2023-03-15T23:34:14.698Z,11.20
2023-03-15T23:36:46.396Z,10.97
2023-03-15T23:39:18.838Z,13.57
2023-03-15T23:41:51.359Z,15.93
2023-03-15T23:44:23.070Z,12.90
2023-03-15T23:46:54.995Z,12.47
2023-03-15T23:49:26.803Z,11.97
2023-03-15T23:52:05.685Z,15.27
2023-03-15T23:54:42.215Z,19.03
2023-03-15T23:57:15.248Z,15.53
2023-03-15T23:59:47.156Z,16.60
